sensor_id;sensor_type;location;lat;lon;timestamp;temperature;humidity
31661;DHT22;18267;52.234;7.444;2022-11-25T00:01:27;6.80;99.90
31661;DHT22;18267;52.234;7.444;2022-11-25T00:03:54;6.90;99.90
31661;DHT22;18267;52.234;7.444;2022-11-25T00:06:26;6.80;99.90
31661;DHT22;18267;52.234;7.444;2022-11-25T00:08:58;7.00;99.90
31661;DHT22;18267;52.234;7.444;2022-11-25T00:11:24;7.00;99.90
31661;DHT22;18267;52.234;7.444;2022-11-25T00:13:50;7.10;99.90
31661;DHT22;18267;52.234;7.444;2022-11-25T00:16:19;7.10;99.90
31661;DHT22;18267;52.234;7.444;2022-11-25T00:18:46;7.10;99.90
31661;DHT22;18267;52.234;7.444;2022-11-25T00:21:14;7.10;99.90
31661;DHT22;18267;52.234;7.444;2022-11-25T00:23:40;7.30;99.90
31661;DHT22;18267;52.234;7.444;2022-11-25T00:26:10;7.30;99.90
31661;DHT22;18267;52.234;7.444;2022-11-25T00:28:37;7.20;99.90
31661;DHT22;18267;52.234;7.444;2022-11-25T00:31:19;7.10;99.90
31661;DHT22;18267;52.234;7.444;2022-11-25T00:33:45;7.10;99.90
31661;DHT22;18267;52.234;7.444;2022-11-25T00:36:35;7.10;99.90
31661;DHT22;18267;52.234;7.444;2022-11-25T00:39:12;7.10;99.90
31661;DHT22;18267;52.234;7.444;2022-11-25T00:41:38;7.00;99.90
31661;DHT22;18267;52.234;7.444;2022-11-25T00:44:22;7.00;99.90
31661;DHT22;18267;52.234;7.444;2022-11-25T00:47:14;7.00;99.90
31661;DHT22;18267;52.234;7.444;2022-11-25T00:49:43;7.00;99.90
31661;DHT22;18267;52.234;7.444;2022-11-25T00:52:12;7.00;99.90
31661;DHT22;18267;52.234;7.444;2022-11-25T00:54:38;7.10;99.90
31661;DHT22;18267;52.234;7.444;2022-11-25T00:57:04;7.10;99.90
31661;DHT22;18267;52.234;7.444;2022-11-25T00:59:30;7.10;99.90
31661;DHT22;18267;52.234;7.444;2022-11-25T01:01:55;7.10;99.90
31661;DHT22;18267;52.234;7.444;2022-11-25T01:04:22;7.00;99.90
31661;DHT22;18267;52.234;7.444;2022-11-25T01:06:47;7.00;99.90
31661;DHT22;18267;52.234;7.444;2022-11-25T01:09:13;7.10;99.90
31661;DHT22;18267;52.234;7.444;2022-11-25T01:11:39;7.10;99.90
31661;DHT22;18267;52.234;7.444;2022-11-25T01:14:06;7.10;99.90
31661;DHT22;18267;52.234;7.444;2022-11-25T01:16:32;7.10;99.90
31661;DHT22;18267;52.234;7.444;2022-11-25T01:18:58;7.10;99.90
31661;DHT22;18267;52.234;7.444;2022-11-25T01:21:27;7.20;99.90
31661;DHT22;18267;52.234;7.444;2022-11-25T01:23:53;7.20;99.90
31661;DHT22;18267;52.234;7.444;2022-11-25T01:26:21;7.30;99.90
31661;DHT22;18267;52.234;7.444;2022-11-25T01:28:48;7.20;99.90
31661;DHT22;18267;52.234;7.444;2022-11-25T01:31:16;7.30;99.90
31661;DHT22;18267;52.234;7.444;2022-11-25T01:33:43;7.30;99.90
31661;DHT22;18267;52.234;7.444;2022-11-25T01:36:12;7.30;99.90
31661;DHT22;18267;52.234;7.444;2022-11-25T01:38:39;7.30;99.90
31661;DHT22;18267;52.234;7.444;2022-11-25T01:41:07;7.30;99.90
31661;DHT22;18267;52.234;7.444;2022-11-25T01:43:32;7.40;99.90
31661;DHT22;18267;52.234;7.444;2022-11-25T01:46:24;7.50;99.90
31661;DHT22;18267;52.234;7.444;2022-11-25T01:49:04;7.60;99.90
31661;DHT22;18267;52.234;7.444;2022-11-25T01:54:23;7.60;99.90
31661;DHT22;18267;52.234;7.444;2022-11-25T01:56:55;7.50;99.90
31661;DHT22;18267;52.234;7.444;2022-11-25T01:59:23;7.50;99.90
31661;DHT22;18267;52.234;7.444;2022-11-25T02:01:49;7.60;99.90
31661;DHT22;18267;52.234;7.444;2022-11-25T02:04:16;7.60;99.90
31661;DHT22;18267;52.234;7.444;2022-11-25T02:06:56;7.60;99.90
31661;DHT22;18267;52.234;7.444;2022-11-25T02:09:24;7.60;99.90
31661;DHT22;18267;52.234;7.444;2022-11-25T02:11:51;7.60;99.90
31661;DHT22;18267;52.234;7.444;2022-11-25T02:14:17;7.60;99.90
31661;DHT22;18267;52.234;7.444;2022-11-25T02:16:44;7.70;99.90
31661;DHT22;18267;52.234;7.444;2022-11-25T02:19:24;7.60;99.90
31661;DHT22;18267;52.234;7.444;2022-11-25T02:21:59;7.70;99.90
31661;DHT22;18267;52.234;7.444;2022-11-25T02:24:43;7.70;99.90
31661;DHT22;18267;52.234;7.444;2022-11-25T02:27:09;7.70;99.90
31661;DHT22;18267;52.234;7.444;2022-11-25T02:29:35;7.60;99.90
31661;DHT22;18267;52.234;7.444;2022-11-25T02:32:01;7.60;99.90
31661;DHT22;18267;52.234;7.444;2022-11-25T02:34:27;7.60;99.90
31661;DHT22;18267;52.234;7.444;2022-11-25T02:36:52;7.60;99.90
31661;DHT22;18267;52.234;7.444;2022-11-25T02:39:19;7.50;99.90
31661;DHT22;18267;52.234;7.444;2022-11-25T02:41:57;7.50;99.90
31661;DHT22;18267;52.234;7.444;2022-11-25T02:44:24;7.60;99.90
31661;DHT22;18267;52.234;7.444;2022-11-25T02:46:49;7.60;99.90
31661;DHT22;18267;52.234;7.444;2022-11-25T02:49:15;7.60;99.90
31661;DHT22;18267;52.234;7.444;2022-11-25T02:51:42;7.60;99.90
31661;DHT22;18267;52.234;7.444;2022-11-25T02:54:10;7.70;99.90
31661;DHT22;18267;52.234;7.444;2022-11-25T02:56:36;7.80;99.90
31661;DHT22;18267;52.234;7.444;2022-11-25T02:59:02;7.80;99.90
31661;DHT22;18267;52.234;7.444;2022-11-25T03:01:29;7.90;99.90
31661;DHT22;18267;52.234;7.444;2022-11-25T03:03:55;7.80;99.90
31661;DHT22;18267;52.234;7.444;2022-11-25T03:06:21;7.90;99.90
31661;DHT22;18267;52.234;7.444;2022-11-25T03:08:47;7.80;99.90
31661;DHT22;18267;52.234;7.444;2022-11-25T03:11:12;7.90;99.90
31661;DHT22;18267;52.234;7.444;2022-11-25T03:13:38;7.80;99.90
31661;DHT22;18267;52.234;7.444;2022-11-25T03:16:04;7.80;99.90
31661;DHT22;18267;52.234;7.444;2022-11-25T03:18:30;7.80;99.90
31661;DHT22;18267;52.234;7.444;2022-11-25T03:20:56;7.80;99.90
31661;DHT22;18267;52.234;7.444;2022-11-25T03:23:21;7.70;99.90
31661;DHT22;18267;52.234;7.444;2022-11-25T03:25:47;7.70;99.90
31661;DHT22;18267;52.234;7.444;2022-11-25T03:28:13;7.70;99.90
31661;DHT22;18267;52.234;7.444;2022-11-25T03:30:38;7.70;99.90
31661;DHT22;18267;52.234;7.444;2022-11-25T03:33:04;7.80;99.90
31661;DHT22;18267;52.234;7.444;2022-11-25T03:35:30;7.80;99.90
31661;DHT22;18267;52.234;7.444;2022-11-25T03:37:55;7.80;99.90
31661;DHT22;18267;52.234;7.444;2022-11-25T03:40:21;7.70;99.90
31661;DHT22;18267;52.234;7.444;2022-11-25T03:42:46;7.70;99.90
31661;DHT22;18267;52.234;7.444;2022-11-25T03:45:13;7.60;99.90
31661;DHT22;18267;52.234;7.444;2022-11-25T03:47:43;7.70;99.90
31661;DHT22;18267;52.234;7.444;2022-11-25T03:50:10;7.60;99.90
31661;DHT22;18267;52.234;7.444;2022-11-25T03:52:36;7.60;99.90
31661;DHT22;18267;52.234;7.444;2022-11-25T03:55:02;7.70;99.90
31661;DHT22;18267;52.234;7.444;2022-11-25T03:57:28;7.80;99.90
31661;DHT22;18267;52.234;7.444;2022-11-25T03:59:53;7.80;99.90
31661;DHT22;18267;52.234;7.444;2022-11-25T04:02:19;7.80;99.90
31661;DHT22;18267;52.234;7.444;2022-11-25T04:04:44;7.80;99.90
31661;DHT22;18267;52.234;7.444;2022-11-25T04:07:10;7.90;99.90
31661;DHT22;18267;52.234;7.444;2022-11-25T04:09:35;7.90;99.90
31661;DHT22;18267;52.234;7.444;2022-11-25T04:12:01;7.90;99.90
31661;DHT22;18267;52.234;7.444;2022-11-25T04:14:45;7.90;99.90
31661;DHT22;18267;52.234;7.444;2022-11-25T04:17:11;7.80;99.90
31661;DHT22;18267;52.234;7.444;2022-11-25T04:19:36;7.80;99.90
31661;DHT22;18267;52.234;7.444;2022-11-25T04:22:02;7.90;99.90
31661;DHT22;18267;52.234;7.444;2022-11-25T04:24:27;7.80;99.90
31661;DHT22;18267;52.234;7.444;2022-11-25T04:26:53;7.80;99.90
31661;DHT22;18267;52.234;7.444;2022-11-25T04:29:19;7.90;99.90
31661;DHT22;18267;52.234;7.444;2022-11-25T04:31:45;7.80;99.90
31661;DHT22;18267;52.234;7.444;2022-11-25T04:34:11;7.80;99.90
31661;DHT22;18267;52.234;7.444;2022-11-25T04:36:36;7.80;99.90
31661;DHT22;18267;52.234;7.444;2022-11-25T04:39:03;7.70;99.90
31661;DHT22;18267;52.234;7.444;2022-11-25T04:41:28;7.80;99.90
31661;DHT22;18267;52.234;7.444;2022-11-25T04:43:54;7.80;99.90
31661;DHT22;18267;52.234;7.444;2022-11-25T04:46:22;7.70;99.90
31661;DHT22;18267;52.234;7.444;2022-11-25T04:48:49;7.70;99.90
31661;DHT22;18267;52.234;7.444;2022-11-25T04:51:15;7.80;99.90
31661;DHT22;18267;52.234;7.444;2022-11-25T04:53:41;7.80;99.90
31661;DHT22;18267;52.234;7.444;2022-11-25T04:56:08;7.80;99.90
31661;DHT22;18267;52.234;7.444;2022-11-25T04:58:35;7.90;99.90
31661;DHT22;18267;52.234;7.444;2022-11-25T05:01:19;7.90;99.90
31661;DHT22;18267;52.234;7.444;2022-11-25T05:03:48;7.90;99.90
31661;DHT22;18267;52.234;7.444;2022-11-25T05:06:14;7.90;99.90
31661;DHT22;18267;52.234;7.444;2022-11-25T05:08:39;7.90;99.90
31661;DHT22;18267;52.234;7.444;2022-11-25T05:11:05;7.90;99.90
31661;DHT22;18267;52.234;7.444;2022-11-25T05:13:30;7.90;99.90
31661;DHT22;18267;52.234;7.444;2022-11-25T05:15:58;8.00;99.90
31661;DHT22;18267;52.234;7.444;2022-11-25T05:18:24;8.00;99.90
31661;DHT22;18267;52.234;7.444;2022-11-25T05:20:49;8.00;99.90
31661;DHT22;18267;52.234;7.444;2022-11-25T05:23:15;7.90;99.90
31661;DHT22;18267;52.234;7.444;2022-11-25T05:25:40;7.90;99.90
31661;DHT22;18267;52.234;7.444;2022-11-25T05:28:06;8.00;99.90
31661;DHT22;18267;52.234;7.444;2022-11-25T05:30:31;7.90;99.90
31661;DHT22;18267;52.234;7.444;2022-11-25T05:32:57;8.00;99.90
31661;DHT22;18267;52.234;7.444;2022-11-25T05:35:23;8.00;99.90
31661;DHT22;18267;52.234;7.444;2022-11-25T05:37:48;8.00;99.90
31661;DHT22;18267;52.234;7.444;2022-11-25T05:40:14;8.00;99.90
31661;DHT22;18267;52.234;7.444;2022-11-25T05:42:40;8.00;99.90
31661;DHT22;18267;52.234;7.444;2022-11-25T05:45:06;8.10;99.90
31661;DHT22;18267;52.234;7.444;2022-11-25T05:47:32;8.10;99.90
31661;DHT22;18267;52.234;7.444;2022-11-25T05:49:57;8.10;99.90
31661;DHT22;18267;52.234;7.444;2022-11-25T05:52:23;8.20;99.90
31661;DHT22;18267;52.234;7.444;2022-11-25T05:54:48;8.20;99.90
31661;DHT22;18267;52.234;7.444;2022-11-25T05:57:14;8.20;99.90
31661;DHT22;18267;52.234;7.444;2022-11-25T05:59:39;8.20;99.90
31661;DHT22;18267;52.234;7.444;2022-11-25T06:02:05;8.20;99.90
31661;DHT22;18267;52.234;7.444;2022-11-25T06:04:30;8.20;99.90
31661;DHT22;18267;52.234;7.444;2022-11-25T06:06:56;8.20;99.90
31661;DHT22;18267;52.234;7.444;2022-11-25T06:09:21;8.20;99.90
31661;DHT22;18267;52.234;7.444;2022-11-25T06:11:47;8.20;99.90
31661;DHT22;18267;52.234;7.444;2022-11-25T06:14:13;8.20;99.90
31661;DHT22;18267;52.234;7.444;2022-11-25T06:16:39;8.10;99.90
31661;DHT22;18267;52.234;7.444;2022-11-25T06:19:05;8.10;99.90
31661;DHT22;18267;52.234;7.444;2022-11-25T06:21:31;8.00;99.90
31661;DHT22;18267;52.234;7.444;2022-11-25T06:23:57;8.00;99.90
31661;DHT22;18267;52.234;7.444;2022-11-25T06:26:23;8.00;99.90
31661;DHT22;18267;52.234;7.444;2022-11-25T06:28:52;8.00;99.90
31661;DHT22;18267;52.234;7.444;2022-11-25T06:31:20;8.00;99.90
31661;DHT22;18267;52.234;7.444;2022-11-25T06:33:47;8.10;99.90
31661;DHT22;18267;52.234;7.444;2022-11-25T06:36:13;8.10;99.90
31661;DHT22;18267;52.234;7.444;2022-11-25T06:38:43;8.10;99.90
31661;DHT22;18267;52.234;7.444;2022-11-25T06:41:09;8.20;99.90
31661;DHT22;18267;52.234;7.444;2022-11-25T06:43:35;8.20;99.90
31661;DHT22;18267;52.234;7.444;2022-11-25T06:46:08;8.20;99.90
31661;DHT22;18267;52.234;7.444;2022-11-25T06:48:35;8.20;99.90
31661;DHT22;18267;52.234;7.444;2022-11-25T06:51:03;8.10;99.90
31661;DHT22;18267;52.234;7.444;2022-11-25T06:53:30;8.20;99.90
31661;DHT22;18267;52.234;7.444;2022-11-25T06:56:04;8.20;99.90
31661;DHT22;18267;52.234;7.444;2022-11-25T06:58:30;8.20;99.90
31661;DHT22;18267;52.234;7.444;2022-11-25T07:01:00;8.20;99.90
31661;DHT22;18267;52.234;7.444;2022-11-25T07:03:26;8.20;99.90
31661;DHT22;18267;52.234;7.444;2022-11-25T07:05:55;8.30;99.90
31661;DHT22;18267;52.234;7.444;2022-11-25T07:08:21;8.30;99.90
31661;DHT22;18267;52.234;7.444;2022-11-25T07:10:48;8.30;99.90
31661;DHT22;18267;52.234;7.444;2022-11-25T07:13:14;8.30;99.90
31661;DHT22;18267;52.234;7.444;2022-11-25T07:15:40;8.30;99.90
31661;DHT22;18267;52.234;7.444;2022-11-25T07:18:05;8.40;99.90
31661;DHT22;18267;52.234;7.444;2022-11-25T07:20:31;8.40;99.90
31661;DHT22;18267;52.234;7.444;2022-11-25T07:22:57;8.40;99.90
31661;DHT22;18267;52.234;7.444;2022-11-25T07:25:22;8.40;99.90
31661;DHT22;18267;52.234;7.444;2022-11-25T07:27:48;8.40;99.90
31661;DHT22;18267;52.234;7.444;2022-11-25T07:30:14;8.40;99.90
31661;DHT22;18267;52.234;7.444;2022-11-25T07:32:39;8.40;99.90
31661;DHT22;18267;52.234;7.444;2022-11-25T07:35:05;8.40;99.90
31661;DHT22;18267;52.234;7.444;2022-11-25T07:37:31;8.40;99.90
31661;DHT22;18267;52.234;7.444;2022-11-25T07:39:57;8.40;99.90
31661;DHT22;18267;52.234;7.444;2022-11-25T07:42:22;8.40;99.90
31661;DHT22;18267;52.234;7.444;2022-11-25T07:44:48;8.50;99.90
31661;DHT22;18267;52.234;7.444;2022-11-25T07:47:14;8.50;99.90
31661;DHT22;18267;52.234;7.444;2022-11-25T07:49:39;8.60;99.90
31661;DHT22;18267;52.234;7.444;2022-11-25T07:52:05;8.60;99.90
31661;DHT22;18267;52.234;7.444;2022-11-25T07:54:30;8.50;99.90
31661;DHT22;18267;52.234;7.444;2022-11-25T07:56:57;8.60;99.90
31661;DHT22;18267;52.234;7.444;2022-11-25T07:59:23;8.50;99.90
31661;DHT22;18267;52.234;7.444;2022-11-25T08:01:52;8.60;99.90
31661;DHT22;18267;52.234;7.444;2022-11-25T08:04:18;8.50;99.90
31661;DHT22;18267;52.234;7.444;2022-11-25T08:06:45;8.60;99.90
31661;DHT22;18267;52.234;7.444;2022-11-25T08:09:14;8.60;99.90
31661;DHT22;18267;52.234;7.444;2022-11-25T08:11:40;8.60;99.90
31661;DHT22;18267;52.234;7.444;2022-11-25T08:14:07;8.60;99.90
31661;DHT22;18267;52.234;7.444;2022-11-25T08:16:33;8.70;99.90
31661;DHT22;18267;52.234;7.444;2022-11-25T08:19:00;8.70;99.90
31661;DHT22;18267;52.234;7.444;2022-11-25T08:21:26;8.80;99.90
31661;DHT22;18267;52.234;7.444;2022-11-25T08:23:52;8.80;99.90
31661;DHT22;18267;52.234;7.444;2022-11-25T08:26:26;8.80;99.90
31661;DHT22;18267;52.234;7.444;2022-11-25T08:28:55;8.80;99.90
31661;DHT22;18267;52.234;7.444;2022-11-25T08:31:24;8.80;99.90
31661;DHT22;18267;52.234;7.444;2022-11-25T08:33:51;8.90;99.90
31661;DHT22;18267;52.234;7.444;2022-11-25T08:36:17;8.90;99.90
31661;DHT22;18267;52.234;7.444;2022-11-25T08:38:45;8.90;99.90
31661;DHT22;18267;52.234;7.444;2022-11-25T08:41:13;8.90;99.90
31661;DHT22;18267;52.234;7.444;2022-11-25T08:43:39;8.90;99.90
31661;DHT22;18267;52.234;7.444;2022-11-25T08:46:14;9.00;99.90
31661;DHT22;18267;52.234;7.444;2022-11-25T08:48:40;9.10;99.90
31661;DHT22;18267;52.234;7.444;2022-11-25T08:51:09;9.30;99.90
31661;DHT22;18267;52.234;7.444;2022-11-25T08:53:37;9.30;99.90
31661;DHT22;18267;52.234;7.444;2022-11-25T08:56:03;9.40;99.90
31661;DHT22;18267;52.234;7.444;2022-11-25T08:58:29;9.40;99.90
31661;DHT22;18267;52.234;7.444;2022-11-25T09:00:54;9.40;99.90
31661;DHT22;18267;52.234;7.444;2022-11-25T09:03:20;9.50;99.90
31661;DHT22;18267;52.234;7.444;2022-11-25T09:05:45;9.50;99.90
31661;DHT22;18267;52.234;7.444;2022-11-25T09:08:11;9.60;99.90
31661;DHT22;18267;52.234;7.444;2022-11-25T09:10:38;9.50;99.90
31661;DHT22;18267;52.234;7.444;2022-11-25T09:13:04;9.50;99.90
31661;DHT22;18267;52.234;7.444;2022-11-25T09:15:30;9.60;99.90
31661;DHT22;18267;52.234;7.444;2022-11-25T09:18:00;9.60;99.90
31661;DHT22;18267;52.234;7.444;2022-11-25T09:20:26;9.60;99.90
31661;DHT22;18267;52.234;7.444;2022-11-25T09:22:52;9.60;99.90
31661;DHT22;18267;52.234;7.444;2022-11-25T09:25:17;9.60;99.90
31661;DHT22;18267;52.234;7.444;2022-11-25T09:27:43;9.60;99.90
31661;DHT22;18267;52.234;7.444;2022-11-25T09:30:09;9.70;99.90
31661;DHT22;18267;52.234;7.444;2022-11-25T09:32:34;9.70;99.90
31661;DHT22;18267;52.234;7.444;2022-11-25T09:35:00;9.70;99.90
31661;DHT22;18267;52.234;7.444;2022-11-25T09:37:25;9.80;99.90
31661;DHT22;18267;52.234;7.444;2022-11-25T09:39:52;9.90;99.90
31661;DHT22;18267;52.234;7.444;2022-11-25T09:45:44;9.90;99.90
31661;DHT22;18267;52.234;7.444;2022-11-25T09:48:40;9.90;99.90
31661;DHT22;18267;52.234;7.444;2022-11-25T09:51:22;10.00;99.90
31661;DHT22;18267;52.234;7.444;2022-11-25T09:54:11;10.00;99.90
31661;DHT22;18267;52.234;7.444;2022-11-25T09:56:50;9.90;99.90
31661;DHT22;18267;52.234;7.444;2022-11-25T09:59:20;9.90;99.90
31661;DHT22;18267;52.234;7.444;2022-11-25T10:02:00;9.80;99.90
31661;DHT22;18267;52.234;7.444;2022-11-25T10:04:38;9.80;99.90
31661;DHT22;18267;52.234;7.444;2022-11-25T10:07:12;9.80;99.90
31661;DHT22;18267;52.234;7.444;2022-11-25T10:09:40;9.70;99.90
31661;DHT22;18267;52.234;7.444;2022-11-25T10:12:27;9.70;99.90
31661;DHT22;18267;52.234;7.444;2022-11-25T10:15:03;9.70;99.90
31661;DHT22;18267;52.234;7.444;2022-11-25T10:22:43;9.90;99.90
31661;DHT22;18267;52.234;7.444;2022-11-25T10:25:17;9.80;99.90
31661;DHT22;18267;52.234;7.444;2022-11-25T10:30:21;9.90;99.90
31661;DHT22;18267;52.234;7.444;2022-11-25T10:35:39;10.00;99.90
31661;DHT22;18267;52.234;7.444;2022-11-25T10:38:12;10.00;99.90
31661;DHT22;18267;52.234;7.444;2022-11-25T10:40:42;10.00;99.90
31661;DHT22;18267;52.234;7.444;2022-11-25T10:43:12;10.00;99.90
31661;DHT22;18267;52.234;7.444;2022-11-25T10:45:48;10.00;99.90
31661;DHT22;18267;52.234;7.444;2022-11-25T10:48:24;9.90;99.90
31661;DHT22;18267;52.234;7.444;2022-11-25T10:51:02;9.90;99.90
31661;DHT22;18267;52.234;7.444;2022-11-25T10:53:31;9.90;99.90
31661;DHT22;18267;52.234;7.444;2022-11-25T10:56:03;9.90;99.90
31661;DHT22;18267;52.234;7.444;2022-11-25T10:58:35;9.90;99.90
31661;DHT22;18267;52.234;7.444;2022-11-25T11:01:16;10.00;99.90
31661;DHT22;18267;52.234;7.444;2022-11-25T11:03:43;9.90;99.90
31661;DHT22;18267;52.234;7.444;2022-11-25T11:06:34;9.90;99.90
31661;DHT22;18267;52.234;7.444;2022-11-25T11:09:00;9.90;99.90
31661;DHT22;18267;52.234;7.444;2022-11-25T11:11:26;9.90;99.90
31661;DHT22;18267;52.234;7.444;2022-11-25T11:14:17;9.90;99.90
31661;DHT22;18267;52.234;7.444;2022-11-25T11:16:54;9.90;99.90
31661;DHT22;18267;52.234;7.444;2022-11-25T11:19:25;10.00;99.90
31661;DHT22;18267;52.234;7.444;2022-11-25T11:21:56;10.00;99.90
31661;DHT22;18267;52.234;7.444;2022-11-25T11:24:31;10.00;99.90
31661;DHT22;18267;52.234;7.444;2022-11-25T11:27:20;10.10;99.90
31661;DHT22;18267;52.234;7.444;2022-11-25T11:29:46;10.10;99.90
31661;DHT22;18267;52.234;7.444;2022-11-25T11:32:23;10.00;99.90
31661;DHT22;18267;52.234;7.444;2022-11-25T11:35:06;10.10;99.90
31661;DHT22;18267;52.234;7.444;2022-11-25T11:37:42;10.10;99.90
31661;DHT22;18267;52.234;7.444;2022-11-25T11:40:46;10.10;99.90
31661;DHT22;18267;52.234;7.444;2022-11-25T11:45:53;10.10;99.90
31661;DHT22;18267;52.234;7.444;2022-11-25T11:48:44;10.10;99.90
31661;DHT22;18267;52.234;7.444;2022-11-25T11:51:30;10.10;99.90
31661;DHT22;18267;52.234;7.444;2022-11-25T11:54:15;10.10;99.90
31661;DHT22;18267;52.234;7.444;2022-11-25T11:59:54;10.10;99.90
31661;DHT22;18267;52.234;7.444;2022-11-25T12:10:26;10.20;99.90
31661;DHT22;18267;52.234;7.444;2022-11-25T12:15:58;10.30;99.90
31661;DHT22;18267;52.234;7.444;2022-11-25T12:18:38;10.20;99.90
31661;DHT22;18267;52.234;7.444;2022-11-25T12:29:32;10.30;99.90
31661;DHT22;18267;52.234;7.444;2022-11-25T12:40:26;10.30;99.90
31661;DHT22;18267;52.234;7.444;2022-11-25T12:43:05;10.30;99.90
31661;DHT22;18267;52.234;7.444;2022-11-25T12:45:34;10.30;99.90
31661;DHT22;18267;52.234;7.444;2022-11-25T12:48:00;10.30;99.90
31661;DHT22;18267;52.234;7.444;2022-11-25T12:53:26;10.30;99.90
31661;DHT22;18267;52.234;7.444;2022-11-25T12:55:57;10.30;99.90
31661;DHT22;18267;52.234;7.444;2022-11-25T12:58:44;10.40;99.90
31661;DHT22;18267;52.234;7.444;2022-11-25T13:01:38;10.40;99.90
31661;DHT22;18267;52.234;7.444;2022-11-25T13:04:13;10.30;99.90
31661;DHT22;18267;52.234;7.444;2022-11-25T13:06:57;10.40;99.90
31661;DHT22;18267;52.234;7.444;2022-11-25T13:09:45;10.50;99.90
31661;DHT22;18267;52.234;7.444;2022-11-25T13:12:24;10.60;99.90
31661;DHT22;18267;52.234;7.444;2022-11-25T13:17:22;10.70;99.90
31661;DHT22;18267;52.234;7.444;2022-11-25T13:19:49;10.70;99.90
31661;DHT22;18267;52.234;7.444;2022-11-25T13:24:42;10.80;99.90
31661;DHT22;18267;52.234;7.444;2022-11-25T13:27:30;10.90;99.90
31661;DHT22;18267;52.234;7.444;2022-11-25T13:29:57;10.90;99.90
31661;DHT22;18267;52.234;7.444;2022-11-25T13:32:35;10.90;99.90
31661;DHT22;18267;52.234;7.444;2022-11-25T13:37:52;10.90;99.90
31661;DHT22;18267;52.234;7.444;2022-11-25T13:40:38;10.90;99.90
31661;DHT22;18267;52.234;7.444;2022-11-25T13:43:04;10.90;99.90
31661;DHT22;18267;52.234;7.444;2022-11-25T13:45:44;10.90;99.90
31661;DHT22;18267;52.234;7.444;2022-11-25T13:50:42;10.90;99.90
31661;DHT22;18267;52.234;7.444;2022-11-25T13:53:37;10.80;99.90
31661;DHT22;18267;52.234;7.444;2022-11-25T14:04:14;10.80;99.90
31661;DHT22;18267;52.234;7.444;2022-11-25T14:09:33;10.80;99.90
31661;DHT22;18267;52.234;7.444;2022-11-25T14:14:56;10.80;99.90
31661;DHT22;18267;52.234;7.444;2022-11-25T14:20:32;10.70;99.90
31661;DHT22;18267;52.234;7.444;2022-11-25T14:25:31;10.70;99.90
31661;DHT22;18267;52.234;7.444;2022-11-25T14:28:08;10.70;99.90
31661;DHT22;18267;52.234;7.444;2022-11-25T14:30:46;10.70;99.90
31661;DHT22;18267;52.234;7.444;2022-11-25T14:33:17;10.70;99.90
31661;DHT22;18267;52.234;7.444;2022-11-25T14:35:50;10.70;99.90
31661;DHT22;18267;52.234;7.444;2022-11-25T14:38:28;10.60;99.90
31661;DHT22;18267;52.234;7.444;2022-11-25T14:41:06;10.70;99.90
31661;DHT22;18267;52.234;7.444;2022-11-25T14:43:39;10.70;99.90
31661;DHT22;18267;52.234;7.444;2022-11-25T14:48:35;10.60;99.90
31661;DHT22;18267;52.234;7.444;2022-11-25T14:51:04;10.60;99.90
31661;DHT22;18267;52.234;7.444;2022-11-25T14:53:41;10.50;99.90
31661;DHT22;18267;52.234;7.444;2022-11-25T14:56:09;10.50;99.90
31661;DHT22;18267;52.234;7.444;2022-11-25T14:58:39;10.50;99.90
31661;DHT22;18267;52.234;7.444;2022-11-25T15:01:16;10.50;99.90
31661;DHT22;18267;52.234;7.444;2022-11-25T15:03:46;10.40;99.90
31661;DHT22;18267;52.234;7.444;2022-11-25T15:06:13;10.40;99.90
31661;DHT22;18267;52.234;7.444;2022-11-25T15:08:41;10.40;99.90
31661;DHT22;18267;52.234;7.444;2022-11-25T15:11:16;10.50;99.90
31661;DHT22;18267;52.234;7.444;2022-11-25T15:13:45;10.40;99.90
31661;DHT22;18267;52.234;7.444;2022-11-25T15:18:38;10.30;99.90
31661;DHT22;18267;52.234;7.444;2022-11-25T15:21:11;10.20;99.90
31661;DHT22;18267;52.234;7.444;2022-11-25T15:23:39;10.20;99.90
31661;DHT22;18267;52.234;7.444;2022-11-25T15:26:18;10.20;99.90
31661;DHT22;18267;52.234;7.444;2022-11-25T15:28:44;10.20;99.90
31661;DHT22;18267;52.234;7.444;2022-11-25T15:31:18;10.30;99.90
31661;DHT22;18267;52.234;7.444;2022-11-25T15:33:46;10.20;99.90
31661;DHT22;18267;52.234;7.444;2022-11-25T15:36:11;10.20;99.90
31661;DHT22;18267;52.234;7.444;2022-11-25T15:38:42;10.20;99.90
31661;DHT22;18267;52.234;7.444;2022-11-25T15:41:33;10.20;99.90
31661;DHT22;18267;52.234;7.444;2022-11-25T15:44:01;10.20;99.90
31661;DHT22;18267;52.234;7.444;2022-11-25T15:46:30;10.20;99.90
31661;DHT22;18267;52.234;7.444;2022-11-25T15:49:04;10.20;99.90
31661;DHT22;18267;52.234;7.444;2022-11-25T15:54:13;10.20;99.90
31661;DHT22;18267;52.234;7.444;2022-11-25T15:56:45;10.10;99.90
31661;DHT22;18267;52.234;7.444;2022-11-25T15:59:44;10.20;99.90
31661;DHT22;18267;52.234;7.444;2022-11-25T16:02:47;10.10;99.90
31661;DHT22;18267;52.234;7.444;2022-11-25T16:05:18;10.10;99.90
31661;DHT22;18267;52.234;7.444;2022-11-25T16:10:27;10.10;99.90
31661;DHT22;18267;52.234;7.444;2022-11-25T16:13:31;10.10;99.90
31661;DHT22;18267;52.234;7.444;2022-11-25T16:15:59;10.10;99.90
31661;DHT22;18267;52.234;7.444;2022-11-25T16:18:39;10.10;99.90
31661;DHT22;18267;52.234;7.444;2022-11-25T16:21:14;10.10;99.90
31661;DHT22;18267;52.234;7.444;2022-11-25T16:23:49;10.10;99.90
31661;DHT22;18267;52.234;7.444;2022-11-25T16:26:47;10.20;99.90
31661;DHT22;18267;52.234;7.444;2022-11-25T16:29:33;10.10;99.90
31661;DHT22;18267;52.234;7.444;2022-11-25T16:32:13;10.10;99.90
31661;DHT22;18267;52.234;7.444;2022-11-25T16:34:39;10.10;99.90
31661;DHT22;18267;52.234;7.444;2022-11-25T16:37:04;10.00;99.90
31661;DHT22;18267;52.234;7.444;2022-11-25T16:39:30;10.00;99.90
31661;DHT22;18267;52.234;7.444;2022-11-25T16:41:57;10.00;99.90
31661;DHT22;18267;52.234;7.444;2022-11-25T16:44:27;9.90;99.90
31661;DHT22;18267;52.234;7.444;2022-11-25T16:46:53;10.00;99.90
31661;DHT22;18267;52.234;7.444;2022-11-25T16:49:20;9.90;99.90
31661;DHT22;18267;52.234;7.444;2022-11-25T16:51:47;9.90;99.90
31661;DHT22;18267;52.234;7.444;2022-11-25T16:54:16;9.80;99.90
31661;DHT22;18267;52.234;7.444;2022-11-25T16:56:42;9.90;99.90
31661;DHT22;18267;52.234;7.444;2022-11-25T16:59:17;9.90;99.90
31661;DHT22;18267;52.234;7.444;2022-11-25T17:01:44;9.90;99.90
31661;DHT22;18267;52.234;7.444;2022-11-25T17:04:13;9.90;99.90
31661;DHT22;18267;52.234;7.444;2022-11-25T17:06:39;9.80;99.90
31661;DHT22;18267;52.234;7.444;2022-11-25T17:09:06;9.80;99.90
31661;DHT22;18267;52.234;7.444;2022-11-25T17:11:41;9.90;99.90
31661;DHT22;18267;52.234;7.444;2022-11-25T17:14:13;9.90;99.90
31661;DHT22;18267;52.234;7.444;2022-11-25T17:16:41;9.90;99.90
31661;DHT22;18267;52.234;7.444;2022-11-25T17:19:11;9.90;99.90
31661;DHT22;18267;52.234;7.444;2022-11-25T17:21:38;9.90;99.90
31661;DHT22;18267;52.234;7.444;2022-11-25T17:24:18;9.80;99.90
31661;DHT22;18267;52.234;7.444;2022-11-25T17:26:47;9.80;99.90
31661;DHT22;18267;52.234;7.444;2022-11-25T17:29:17;9.80;99.90
31661;DHT22;18267;52.234;7.444;2022-11-25T17:31:44;9.80;99.90
31661;DHT22;18267;52.234;7.444;2022-11-25T17:34:14;9.80;99.90